createdAt,value
2022-12-31T00:00:52.746Z,95716.25
2022-12-31T00:01:49.675Z,95576.69
2022-12-31T00:02:46.681Z,95493.28
2022-12-31T00:03:44.953Z,95598.59
2022-12-31T00:04:41.717Z,95741.88
2022-12-31T00:05:38.564Z,95639.00
2022-12-31T00:06:36.398Z,95723.34
2022-12-31T00:08:31.515Z,95734.66
2022-12-31T00:09:28.280Z,95486.13
2022-12-31T00:10:25.631Z,95610.31
2022-12-31T00:11:24.681Z,95728.50
2022-12-31T00:12:21.438Z,95708.47
2022-12-31T00:13:18.370Z,95741.44
2022-12-31T00:14:15.433Z,95731.19
2022-12-31T00:15:12.215Z,95744.94
2022-12-31T00:16:19.941Z,95677.81
2022-12-31T00:17:16.736Z,95667.19
2022-12-31T00:18:13.613Z,95646.81
2022-12-31T00:19:12.150Z,95743.28
2022-12-31T00:20:09.287Z,95742.97
2022-12-31T00:21:10.560Z,95720.50
2022-12-31T00:22:07.341Z,95616.44
2022-12-31T00:23:04.156Z,95585.56
2022-12-31T00:24:02.381Z,95750.19
2022-12-31T00:24:59.267Z,95757.97
2022-12-31T00:25:56.072Z,95625.00
2022-12-31T00:26:52.992Z,95770.66
2022-12-31T00:27:49.959Z,95757.41
2022-12-31T00:28:47.467Z,95613.75
2022-12-31T00:29:44.221Z,95618.72
2022-12-31T00:30:41.017Z,95740.81
2022-12-31T00:31:39.006Z,95648.53
2022-12-31T00:32:35.867Z,95729.63
2022-12-31T00:33:32.661Z,95776.66
2022-12-31T00:34:29.480Z,95723.47
2022-12-31T00:35:26.989Z,95613.56
2022-12-31T00:36:30.608Z,95721.84
2022-12-31T00:37:27.570Z,95676.31
2022-12-31T00:38:24.330Z,95658.97
2022-12-31T00:39:21.144Z,95790.03
2022-12-31T00:40:17.968Z,95642.28
2022-12-31T00:41:16.430Z,95747.84
2022-12-31T00:42:13.214Z,95788.78
2022-12-31T00:43:10.003Z,95756.94
2022-12-31T00:44:06.793Z,95571.78
2022-12-31T00:45:03.790Z,95772.81
2022-12-31T00:46:01.458Z,95765.41
2022-12-31T00:46:58.332Z,95721.34
2022-12-31T00:47:55.075Z,95726.63
2022-12-31T00:48:53.034Z,95689.50
2022-12-31T00:49:49.858Z,95718.59
2022-12-31T00:50:47.631Z,95802.34
2022-12-31T00:51:46.653Z,95729.41
2022-12-31T00:52:43.652Z,95709.56
2022-12-31T00:53:40.592Z,95638.53
2022-12-31T00:54:37.321Z,95739.59
2022-12-31T00:55:34.120Z,95782.59
2022-12-31T00:56:32.138Z,95771.03
2022-12-31T00:57:28.939Z,95789.75
2022-12-31T00:58:25.687Z,95775.56
2022-12-31T00:59:22.536Z,95764.44
2022-12-31T01:00:19.362Z,95734.94
2022-12-31T01:01:22.939Z,95773.28
2022-12-31T01:02:19.963Z,95790.41
2022-12-31T01:03:16.943Z,95798.53
2022-12-31T01:04:18.533Z,95786.44
2022-12-31T01:05:15.383Z,95772.88
2022-12-31T01:06:12.434Z,95736.44
2022-12-31T01:07:09.179Z,95829.16
2022-12-31T01:08:06.429Z,95811.00
2022-12-31T01:09:04.729Z,95724.34
2022-12-31T01:10:01.511Z,95599.38
2022-12-31T01:11:18.149Z,95799.06
2022-12-31T01:12:14.899Z,95799.75
2022-12-31T01:13:11.839Z,95797.09
2022-12-31T01:14:15.395Z,95781.25
2022-12-31T01:15:12.201Z,95775.59
2022-12-31T01:16:14.658Z,95701.97
2022-12-31T01:17:13.328Z,95697.16
2022-12-31T01:18:10.817Z,95700.59
2022-12-31T01:19:11.527Z,95802.94
2022-12-31T01:20:08.752Z,95799.13
2022-12-31T01:21:08.847Z,95787.41
2022-12-31T01:22:05.604Z,95739.53
2022-12-31T01:23:02.465Z,95723.31
2022-12-31T01:24:00.057Z,95770.78
2022-12-31T01:24:56.979Z,95779.94
2022-12-31T01:25:53.763Z,95774.56
2022-12-31T01:26:51.398Z,95731.41
2022-12-31T01:27:48.215Z,95644.84
2022-12-31T01:28:45.147Z,95762.94
2022-12-31T01:29:41.978Z,95705.72
2022-12-31T01:30:40.212Z,95744.44
2022-12-31T01:31:38.356Z,95793.06
2022-12-31T01:32:35.194Z,95579.84
2022-12-31T01:33:32.057Z,95780.72
2022-12-31T01:34:28.884Z,95824.63
2022-12-31T01:35:26.036Z,95743.91
2022-12-31T01:36:26.680Z,95838.41
2022-12-31T01:37:23.701Z,95697.72
2022-12-31T01:38:20.529Z,95849.75
2022-12-31T01:39:17.373Z,95824.75
2022-12-31T01:40:14.191Z,95820.41
2022-12-31T01:41:20.947Z,95750.94
2022-12-31T01:42:17.781Z,95802.34
2022-12-31T01:43:20.809Z,95760.72
2022-12-31T01:44:23.635Z,95795.22
2022-12-31T01:45:20.524Z,95757.31
2022-12-31T01:46:56.057Z,95732.84
2022-12-31T01:47:58.204Z,95578.50
2022-12-31T01:49:01.984Z,95599.38
2022-12-31T01:50:06.440Z,95824.47
2022-12-31T01:51:04.846Z,95732.19
2022-12-31T01:52:28.050Z,95797.47
2022-12-31T01:53:25.031Z,95795.38
2022-12-31T01:54:24.594Z,95769.59
2022-12-31T01:55:24.131Z,95802.34
2022-12-31T01:56:24.000Z,95776.31
2022-12-31T01:57:24.547Z,95720.06
2022-12-31T01:58:29.243Z,95701.34
2022-12-31T01:59:29.080Z,95809.66
2022-12-31T02:00:26.172Z,95688.28
2022-12-31T02:01:31.296Z,95755.53
2022-12-31T02:02:28.729Z,95773.31
2022-12-31T02:03:28.767Z,95809.66
2022-12-31T02:04:27.667Z,95857.56
2022-12-31T02:05:41.211Z,95788.16
2022-12-31T02:06:47.319Z,95796.97
2022-12-31T02:07:44.739Z,95732.66
2022-12-31T02:08:42.284Z,95756.34
2022-12-31T02:09:41.923Z,95830.44
2022-12-31T02:10:39.106Z,95840.22
2022-12-31T02:11:38.088Z,95815.75
2022-12-31T02:12:34.986Z,95835.97
2022-12-31T02:13:31.804Z,95813.44
2022-12-31T02:14:33.865Z,95803.44
2022-12-31T02:15:53.903Z,95812.59
2022-12-31T02:17:24.697Z,95796.09
2022-12-31T02:18:33.240Z,95811.03
2022-12-31T02:19:44.866Z,95809.25
2022-12-31T02:21:13.905Z,95812.81
2022-12-31T02:22:23.052Z,95814.94
2022-12-31T02:23:57.284Z,95813.44
2022-12-31T02:25:18.802Z,95816.72
2022-12-31T02:26:46.018Z,95812.47
2022-12-31T02:28:07.001Z,95810.16
2022-12-31T02:29:15.850Z,95806.53
2022-12-31T02:30:21.877Z,95843.66
2022-12-31T02:31:31.535Z,95646.84
2022-12-31T02:32:55.881Z,95764.66
2022-12-31T02:34:11.699Z,95837.59
2022-12-31T02:35:11.168Z,95821.28
2022-12-31T02:36:23.454Z,95783.31
2022-12-31T02:37:24.219Z,95852.13
2022-12-31T02:38:31.189Z,95806.72
2022-12-31T02:39:30.212Z,95661.69
2022-12-31T02:40:27.264Z,95720.31
2022-12-31T02:41:42.466Z,95836.00
2022-12-31T02:42:39.252Z,95674.72
2022-12-31T02:43:35.991Z,95860.03
2022-12-31T02:44:37.921Z,95779.09
2022-12-31T02:45:40.670Z,95827.22
2022-12-31T02:46:53.873Z,95777.47
2022-12-31T02:48:22.133Z,95798.44
2022-12-31T02:49:36.410Z,95392.91
2022-12-31T02:51:02.246Z,95804.81
2022-12-31T02:52:14.872Z,95781.31
2022-12-31T02:53:40.468Z,95826.19
2022-12-31T02:54:54.186Z,95761.88
2022-12-31T02:56:03.586Z,95791.66
2022-12-31T02:57:24.302Z,95837.41
2022-12-31T02:58:52.634Z,95828.69
2022-12-31T03:00:20.975Z,95800.03
2022-12-31T03:01:45.549Z,95734.28
2022-12-31T03:02:46.730Z,95820.31
2022-12-31T03:03:43.795Z,95723.22
2022-12-31T03:04:49.720Z,95836.97
2022-12-31T03:05:50.006Z,95822.44
2022-12-31T03:06:47.201Z,95829.47
2022-12-31T03:07:45.520Z,95820.00
2022-12-31T03:10:16.597Z,95688.13
2022-12-31T03:11:33.404Z,95838.59
2022-12-31T03:12:46.828Z,95787.00
2022-12-31T03:13:43.709Z,95812.13
2022-12-31T03:14:40.581Z,95728.25
2022-12-31T03:15:37.414Z,95842.34
2022-12-31T03:16:35.077Z,95649.09
2022-12-31T03:17:32.114Z,95728.25
2022-12-31T03:18:55.076Z,95700.53
2022-12-31T03:20:10.595Z,95816.13
2022-12-31T03:21:32.068Z,95750.47
2022-12-31T03:22:29.831Z,95781.44
2022-12-31T03:23:33.769Z,95847.28
2022-12-31T03:24:48.783Z,95816.69
2022-12-31T03:25:45.706Z,95750.75
2022-12-31T03:26:42.480Z,95750.09
2022-12-31T03:27:39.292Z,95670.50
2022-12-31T03:28:36.324Z,95820.00
2022-12-31T03:29:33.160Z,95840.22
2022-12-31T03:30:32.021Z,95733.81
2022-12-31T03:31:28.825Z,95713.03
2022-12-31T03:32:25.695Z,95801.66
2022-12-31T03:33:23.415Z,95817.34
2022-12-31T03:34:20.178Z,95711.91
2022-12-31T03:35:21.966Z,95835.63
2022-12-31T03:36:18.807Z,95854.25
2022-12-31T03:37:15.535Z,95813.41
2022-12-31T03:38:12.326Z,95724.94
2022-12-31T03:39:09.107Z,95831.97
2022-12-31T03:40:08.495Z,95766.91
2022-12-31T03:41:05.687Z,95688.94
2022-12-31T03:42:02.524Z,95835.00
2022-12-31T03:42:59.327Z,95792.84
2022-12-31T03:43:56.033Z,95715.53
2022-12-31T03:44:52.750Z,95829.75
2022-12-31T03:45:54.163Z,95680.22
2022-12-31T03:46:51.110Z,95838.84
2022-12-31T03:47:48.529Z,95822.69
2022-12-31T03:48:45.308Z,95635.03
2022-12-31T03:49:42.033Z,95876.09
2022-12-31T03:50:38.816Z,95798.41
2022-12-31T03:51:35.619Z,95694.03
2022-12-31T03:52:32.574Z,95706.84
2022-12-31T03:53:29.519Z,95285.75
2022-12-31T03:54:26.452Z,95853.53
2022-12-31T03:55:23.364Z,95866.25
2022-12-31T03:56:20.215Z,95788.22
2022-12-31T03:57:17.156Z,95655.97
2022-12-31T03:58:14.034Z,95859.72
2022-12-31T03:59:11.046Z,95867.53
2022-12-31T04:00:12.301Z,95756.06
2022-12-31T04:01:09.106Z,95622.31
2022-12-31T04:02:06.414Z,95788.22
2022-12-31T04:03:03.428Z,95786.88
2022-12-31T04:04:00.285Z,95809.63
2022-12-31T04:04:57.069Z,95802.00
2022-12-31T04:05:55.755Z,95802.09
2022-12-31T04:06:52.683Z,95717.53
2022-12-31T04:07:49.836Z,95781.59
2022-12-31T04:08:46.668Z,95699.16
2022-12-31T04:09:43.526Z,95820.00
2022-12-31T04:10:40.371Z,95768.31
2022-12-31T04:11:37.135Z,95873.53
2022-12-31T04:12:34.294Z,95883.34
2022-12-31T04:13:31.163Z,95862.66
2022-12-31T04:14:27.942Z,95833.06
2022-12-31T04:15:24.685Z,95726.41
2022-12-31T04:16:21.491Z,95628.84
2022-12-31T04:17:18.308Z,95875.28
2022-12-31T04:18:15.076Z,95858.97
2022-12-31T04:19:13.023Z,95798.75
2022-12-31T04:20:10.568Z,95682.41
2022-12-31T04:21:07.441Z,95685.38
2022-12-31T04:22:04.722Z,95801.09
2022-12-31T04:23:01.442Z,95863.50
2022-12-31T04:24:01.888Z,95772.06
2022-12-31T04:24:58.753Z,95849.09
2022-12-31T04:25:55.630Z,95711.34
2022-12-31T04:26:52.582Z,95881.66
2022-12-31T04:27:49.404Z,95809.91
2022-12-31T04:28:46.353Z,95750.84
2022-12-31T04:29:43.230Z,95883.75
2022-12-31T04:30:40.514Z,95796.97
2022-12-31T04:31:37.700Z,95845.13
2022-12-31T04:32:34.593Z,95874.66
2022-12-31T04:33:31.378Z,95867.97
2022-12-31T04:34:28.602Z,95833.34
2022-12-31T04:35:25.417Z,95708.00
2022-12-31T04:36:22.245Z,95801.22
2022-12-31T04:37:18.972Z,95673.41
2022-12-31T04:38:15.816Z,95423.28
2022-12-31T04:39:12.600Z,95776.47
2022-12-31T04:40:09.852Z,95718.75
2022-12-31T04:41:18.941Z,95912.75
2022-12-31T04:42:15.700Z,95728.88
2022-12-31T04:43:12.507Z,95875.53
2022-12-31T04:44:09.326Z,95873.44
2022-12-31T04:45:07.398Z,95742.16
2022-12-31T04:46:04.312Z,95876.41
2022-12-31T04:47:01.168Z,95869.69
2022-12-31T04:47:57.891Z,95881.03
2022-12-31T04:48:55.528Z,95747.16
2022-12-31T04:49:52.331Z,95887.34
2022-12-31T04:50:49.152Z,95707.13
2022-12-31T04:51:45.965Z,95788.47
2022-12-31T04:52:43.212Z,95897.09
2022-12-31T04:53:40.491Z,95815.66
2022-12-31T04:54:37.267Z,95860.59
2022-12-31T04:55:34.002Z,95786.78
2022-12-31T04:56:31.212Z,95821.25
2022-12-31T04:57:28.015Z,95882.81
2022-12-31T04:58:24.742Z,95779.53
2022-12-31T04:59:21.606Z,95696.06
2022-12-31T05:00:18.511Z,95891.44
2022-12-31T05:01:16.043Z,95719.69
2022-12-31T05:02:13.093Z,95723.91
2022-12-31T05:03:10.014Z,95897.41
2022-12-31T05:04:06.926Z,95768.44
2022-12-31T05:05:03.943Z,95778.34
2022-12-31T05:06:18.980Z,95830.38
2022-12-31T05:07:15.827Z,95807.25
2022-12-31T05:08:13.753Z,95891.72
2022-12-31T05:09:10.505Z,95800.19
2022-12-31T05:10:07.768Z,95897.53
2022-12-31T05:11:04.594Z,95918.09
2022-12-31T05:12:01.421Z,95801.78
2022-12-31T05:12:58.230Z,95928.00
2022-12-31T05:13:55.090Z,95855.22
2022-12-31T05:14:51.945Z,95834.69
2022-12-31T05:15:48.768Z,95888.44
2022-12-31T05:16:45.613Z,95818.50
2022-12-31T05:17:42.388Z,95906.00
2022-12-31T05:18:39.332Z,95715.94
2022-12-31T05:19:36.294Z,95779.88
2022-12-31T05:20:33.596Z,95718.53
2022-12-31T05:21:30.362Z,95892.50
2022-12-31T05:22:30.033Z,95836.31
2022-12-31T05:23:27.316Z,95847.63
2022-12-31T05:24:24.057Z,95926.22
2022-12-31T05:25:20.895Z,95758.03
2022-12-31T05:26:17.993Z,95777.41
2022-12-31T05:27:14.800Z,95822.44
2022-12-31T05:28:11.633Z,95924.59
2022-12-31T05:29:08.596Z,95915.34
2022-12-31T05:30:07.014Z,95779.19
2022-12-31T05:31:04.029Z,95815.88
2022-12-31T05:32:00.768Z,95871.59
2022-12-31T05:32:57.671Z,95673.38
2022-12-31T05:33:54.606Z,95893.25
2022-12-31T05:34:51.959Z,95922.28
2022-12-31T05:35:48.833Z,95939.88
2022-12-31T05:36:45.691Z,95861.47
2022-12-31T05:37:42.981Z,95858.44
2022-12-31T05:38:39.759Z,95786.91
2022-12-31T05:39:36.526Z,95924.75
2022-12-31T05:40:33.468Z,95951.34
2022-12-31T05:41:30.281Z,95764.53
2022-12-31T05:42:27.151Z,95743.72
2022-12-31T05:43:23.906Z,95855.00
2022-12-31T05:44:23.162Z,95857.59
2022-12-31T05:45:23.903Z,95906.22
2022-12-31T05:46:23.769Z,95956.03
2022-12-31T05:47:20.789Z,95934.22
2022-12-31T05:48:17.598Z,95967.38
2022-12-31T05:49:14.364Z,95785.47
2022-12-31T05:50:15.771Z,95955.19
2022-12-31T05:51:12.584Z,95950.28
2022-12-31T05:52:09.530Z,95844.34
2022-12-31T05:53:06.470Z,95943.78
2022-12-31T05:54:03.547Z,95922.66
2022-12-31T05:55:00.340Z,95901.50
2022-12-31T05:55:57.083Z,95862.09
2022-12-31T05:56:53.894Z,95957.47
2022-12-31T05:57:50.806Z,95973.31
2022-12-31T05:58:47.601Z,95904.06
2022-12-31T05:59:44.393Z,95950.59
2022-12-31T06:00:42.398Z,95750.91
2022-12-31T06:01:39.304Z,95990.78
2022-12-31T06:02:36.400Z,95965.41
2022-12-31T06:03:33.301Z,95946.34
2022-12-31T06:04:30.395Z,95946.31
2022-12-31T06:05:27.133Z,95834.03
2022-12-31T06:06:23.928Z,95758.31
2022-12-31T06:07:20.624Z,95742.22
2022-12-31T06:08:17.433Z,95965.41
2022-12-31T06:09:15.822Z,95823.84
2022-12-31T06:10:12.636Z,95819.34
2022-12-31T06:11:09.379Z,95943.78
2022-12-31T06:12:06.480Z,95819.25
2022-12-31T06:13:03.314Z,95898.00
2022-12-31T06:14:00.294Z,95977.22
2022-12-31T06:14:57.207Z,95884.44
2022-12-31T06:15:53.978Z,95711.44
2022-12-31T06:16:50.816Z,95873.97
2022-12-31T06:17:47.607Z,95750.97
2022-12-31T06:18:47.464Z,95859.50
2022-12-31T06:19:44.207Z,95955.81
2022-12-31T06:20:41.044Z,95868.28
2022-12-31T06:21:38.020Z,95789.34
2022-12-31T06:22:34.746Z,95974.19
2022-12-31T06:23:31.742Z,95730.13
2022-12-31T06:24:28.578Z,95957.63
2022-12-31T06:25:25.422Z,95931.94
2022-12-31T06:26:22.275Z,95847.78
2022-12-31T06:27:19.001Z,95983.19
2022-12-31T06:28:20.179Z,95958.91
2022-12-31T06:29:17.665Z,95919.50
2022-12-31T06:30:14.763Z,95976.22
2022-12-31T06:31:14.797Z,95991.69
2022-12-31T06:32:12.586Z,95940.00
2022-12-31T06:33:09.390Z,95810.63
2022-12-31T06:34:06.147Z,95890.41
2022-12-31T06:35:03.109Z,96009.19
2022-12-31T06:36:02.866Z,95966.91
2022-12-31T06:36:59.945Z,95865.75
2022-12-31T06:37:56.879Z,95998.13
2022-12-31T06:38:54.017Z,95843.38
2022-12-31T06:39:50.758Z,95955.91
2022-12-31T06:40:47.571Z,95862.44
2022-12-31T06:41:44.372Z,95973.59
2022-12-31T06:42:42.279Z,95779.19
2022-12-31T06:43:41.138Z,95814.28
2022-12-31T06:44:37.879Z,95863.72
2022-12-31T06:45:34.703Z,95953.47
2022-12-31T06:46:31.514Z,96024.72
2022-12-31T06:47:28.329Z,95789.94
2022-12-31T06:48:25.083Z,95940.69
2022-12-31T06:49:21.902Z,95916.75
2022-12-31T06:50:18.636Z,95771.75
2022-12-31T06:51:19.404Z,96012.13
2022-12-31T06:52:16.198Z,95882.91
2022-12-31T06:53:12.991Z,95817.91
2022-12-31T06:54:09.771Z,95828.44
2022-12-31T06:55:07.528Z,95962.56
2022-12-31T06:56:16.687Z,95949.28
2022-12-31T06:57:13.958Z,95907.44
2022-12-31T06:58:14.138Z,96033.34
2022-12-31T06:59:31.463Z,95856.16
2022-12-31T07:00:28.601Z,95984.50
2022-12-31T07:01:42.009Z,95981.81
2022-12-31T07:02:41.899Z,95987.56
2022-12-31T07:03:45.191Z,95886.97
2022-12-31T07:05:02.496Z,95978.09
2022-12-31T07:06:12.265Z,95987.25
2022-12-31T07:07:30.856Z,95977.75
2022-12-31T07:08:44.410Z,95984.78
2022-12-31T07:09:57.112Z,96013.38
2022-12-31T07:11:08.608Z,95885.16
2022-12-31T07:12:08.111Z,95991.69
2022-12-31T07:13:25.780Z,95943.88
2022-12-31T07:14:34.603Z,95992.63
2022-12-31T07:15:55.986Z,96000.56
2022-12-31T07:17:00.795Z,96001.25
2022-12-31T07:18:22.809Z,96037.75
2022-12-31T07:19:57.163Z,96001.66
2022-12-31T07:20:54.734Z,96019.28
2022-12-31T07:21:55.648Z,96019.81
2022-12-31T07:22:52.681Z,95905.94
2022-12-31T07:23:49.675Z,96019.81
2022-12-31T07:24:46.837Z,95716.53
2022-12-31T07:26:00.278Z,96015.94
2022-12-31T07:27:32.582Z,96003.03
2022-12-31T07:28:41.192Z,96012.63
2022-12-31T07:29:55.987Z,95983.09
2022-12-31T07:31:16.085Z,96040.13
2022-12-31T07:32:37.596Z,96012.75
2022-12-31T07:33:55.667Z,95771.63
2022-12-31T07:34:58.098Z,96018.94
2022-12-31T07:36:20.789Z,96009.47
2022-12-31T07:37:30.771Z,95982.34
2022-12-31T07:38:50.784Z,96011.72
2022-12-31T07:39:53.294Z,96004.56
2022-12-31T07:41:28.597Z,95964.22
2022-12-31T07:42:34.178Z,95888.72
2022-12-31T07:44:12.459Z,96008.50
2022-12-31T07:45:14.948Z,96012.94
2022-12-31T07:46:26.748Z,96022.91
2022-12-31T07:47:29.190Z,95939.69
2022-12-31T07:48:28.852Z,95865.69
2022-12-31T07:49:28.622Z,96049.84
2022-12-31T07:50:25.682Z,96009.94
2022-12-31T07:51:24.153Z,96050.59
2022-12-31T07:52:21.865Z,95960.72
2022-12-31T07:53:19.090Z,95764.97
2022-12-31T07:54:15.999Z,95924.78
2022-12-31T07:55:13.069Z,95812.81
2022-12-31T07:56:10.509Z,96016.59
2022-12-31T07:57:07.416Z,95987.81
2022-12-31T07:58:19.417Z,96047.25
2022-12-31T07:59:33.796Z,96021.50
2022-12-31T08:00:31.480Z,95965.91
2022-12-31T08:01:50.137Z,96025.63
2022-12-31T08:03:17.450Z,96019.16
2022-12-31T08:04:34.785Z,96025.84
2022-12-31T08:06:00.391Z,96023.72
2022-12-31T08:07:09.144Z,96024.69
2022-12-31T08:08:11.713Z,96017.28
2022-12-31T08:09:19.033Z,96024.31
2022-12-31T08:10:49.245Z,96021.31
2022-12-31T08:11:56.183Z,96020.59
2022-12-31T08:13:02.624Z,96022.22
2022-12-31T08:14:02.519Z,96031.78
2022-12-31T08:14:59.632Z,96034.50
2022-12-31T08:15:56.696Z,95977.00
2022-12-31T08:16:54.771Z,96014.31
2022-12-31T08:17:51.809Z,96017.28
2022-12-31T08:18:48.884Z,96018.50
2022-12-31T08:19:47.172Z,95922.28
2022-12-31T08:21:09.290Z,96027.72
2022-12-31T08:22:25.209Z,95912.81
2022-12-31T08:23:32.692Z,95977.34
2022-12-31T08:24:44.639Z,95936.75
2022-12-31T08:25:59.281Z,96021.69
2022-12-31T08:27:20.631Z,96016.84
2022-12-31T08:28:45.631Z,95997.09
2022-12-31T08:30:01.950Z,96040.25
2022-12-31T08:31:05.601Z,95990.81
2022-12-31T08:32:33.762Z,95966.22
2022-12-31T08:34:15.928Z,96030.81
2022-12-31T08:35:21.952Z,96030.97
2022-12-31T08:36:53.625Z,95994.19
2022-12-31T08:37:56.000Z,96010.03
2022-12-31T08:38:58.397Z,96035.47
2022-12-31T08:40:21.172Z,96002.22
2022-12-31T08:41:20.566Z,96042.13
2022-12-31T08:42:29.487Z,96035.94
2022-12-31T08:44:08.043Z,95984.03
2022-12-31T08:45:07.714Z,96037.50
2022-12-31T08:46:17.590Z,95959.34
2022-12-31T08:47:38.749Z,96006.34
2022-12-31T08:48:43.628Z,95975.78
2022-12-31T08:49:40.864Z,96026.16
2022-12-31T08:50:38.073Z,96046.06
2022-12-31T08:51:35.243Z,96039.09
2022-12-31T08:52:34.814Z,95999.31
2022-12-31T08:53:32.071Z,96037.56
2022-12-31T08:54:30.212Z,96017.78
2022-12-31T08:55:27.266Z,96031.88
2022-12-31T08:56:56.159Z,96015.28
2022-12-31T08:58:16.116Z,95961.81
2022-12-31T08:59:34.034Z,95997.47
2022-12-31T09:00:33.660Z,95998.22
2022-12-31T09:01:48.519Z,96022.59
2022-12-31T09:03:18.920Z,96016.53
2022-12-31T09:04:21.551Z,96013.53
2022-12-31T09:05:53.170Z,96015.91
2022-12-31T09:07:12.012Z,96002.94
2022-12-31T09:08:22.928Z,96014.34
2022-12-31T09:09:52.748Z,96022.31
2022-12-31T09:11:10.694Z,96015.66
2022-12-31T09:12:24.617Z,96006.75
2022-12-31T09:13:40.111Z,96019.63
2022-12-31T09:15:03.260Z,96017.00
2022-12-31T09:16:15.617Z,96011.28
2022-12-31T09:17:24.279Z,96019.72
2022-12-31T09:18:21.402Z,95940.53
2022-12-31T09:19:18.259Z,96010.22
2022-12-31T09:20:22.128Z,95834.28
2022-12-31T09:21:19.175Z,95955.25
2022-12-31T09:22:16.226Z,96024.56
2022-12-31T09:23:14.028Z,96010.47
2022-12-31T09:24:13.347Z,96004.59
2022-12-31T09:25:19.376Z,95997.44
2022-12-31T09:26:50.661Z,95995.50
2022-12-31T09:28:23.783Z,95986.47
2022-12-31T09:30:09.126Z,95986.19
2022-12-31T09:31:40.002Z,95915.97
2022-12-31T09:32:51.942Z,95998.41
2022-12-31T09:34:12.941Z,95855.44
2022-12-31T09:35:25.871Z,95862.47
2022-12-31T09:36:32.240Z,95987.53
2022-12-31T09:37:37.989Z,95984.53
2022-12-31T09:39:02.681Z,95861.59
2022-12-31T09:40:29.855Z,96006.56
2022-12-31T09:41:55.421Z,95981.34
2022-12-31T09:43:09.555Z,95974.66
2022-12-31T09:44:33.678Z,95970.28
2022-12-31T09:45:45.406Z,95971.50
2022-12-31T09:46:56.987Z,95966.13
2022-12-31T09:47:56.433Z,95928.09
2022-12-31T09:49:17.332Z,95947.13
2022-12-31T09:50:18.110Z,95964.38
2022-12-31T09:51:32.527Z,95960.88
2022-12-31T09:53:00.615Z,95939.84
2022-12-31T09:54:39.069Z,95965.25
2022-12-31T09:55:44.469Z,95959.47
2022-12-31T09:57:02.777Z,95958.38
2022-12-31T09:58:20.655Z,95965.88
2022-12-31T09:59:51.524Z,95977.13
2022-12-31T10:01:38.613Z,95943.56
2022-12-31T10:03:05.113Z,95954.66
2022-12-31T10:04:04.548Z,95954.59
2022-12-31T10:05:35.135Z,95955.75
2022-12-31T10:07:09.259Z,95869.41
2022-12-31T10:08:36.853Z,95936.31
2022-12-31T10:09:47.222Z,95996.44
2022-12-31T10:11:05.243Z,95835.56
2022-12-31T10:12:43.754Z,95947.03
2022-12-31T10:14:14.144Z,95861.25
2022-12-31T10:15:47.722Z,95945.50
2022-12-31T10:16:59.235Z,95941.16
2022-12-31T10:18:53.460Z,95935.13
2022-12-31T10:20:14.556Z,95935.81
2022-12-31T10:21:29.284Z,95926.75
2022-12-31T10:22:45.895Z,95923.34
2022-12-31T10:23:48.443Z,95928.97
2022-12-31T10:24:47.999Z,95911.78
2022-12-31T10:26:22.715Z,95835.91
2022-12-31T10:27:53.607Z,95916.47
2022-12-31T10:29:14.976Z,95802.25
2022-12-31T10:30:22.045Z,95812.13
2022-12-31T10:31:40.609Z,95929.78
2022-12-31T10:32:55.584Z,95916.41
2022-12-31T10:34:02.784Z,95922.34
2022-12-31T10:35:46.853Z,95929.06
2022-12-31T10:37:09.064Z,95933.56
2022-12-31T10:38:20.575Z,95906.78
2022-12-31T10:39:35.111Z,95802.97
2022-12-31T10:40:53.161Z,95920.94
2022-12-31T10:42:08.240Z,95918.28
2022-12-31T10:43:47.195Z,95894.91
2022-12-31T10:45:08.575Z,95938.72
2022-12-31T10:46:32.978Z,95918.75
2022-12-31T10:47:57.719Z,95924.78
2022-12-31T10:49:24.669Z,95909.22
2022-12-31T10:50:50.242Z,95913.00
2022-12-31T10:51:57.177Z,95908.41
2022-12-31T10:53:21.595Z,95811.31
2022-12-31T10:54:45.586Z,95887.84
2022-12-31T10:56:01.261Z,95913.09
2022-12-31T10:57:42.274Z,95850.84
2022-12-31T10:58:51.103Z,95915.38
2022-12-31T11:00:25.367Z,95879.34
2022-12-31T11:01:33.035Z,95911.47
2022-12-31T11:03:08.317Z,95916.81
2022-12-31T11:04:23.519Z,95918.47
2022-12-31T11:06:05.232Z,95921.38
2022-12-31T11:07:51.911Z,95916.16
2022-12-31T11:09:22.876Z,95915.38
2022-12-31T11:10:56.889Z,95908.28
2022-12-31T11:12:07.309Z,95798.00
2022-12-31T11:13:22.311Z,95833.28
2022-12-31T11:14:39.321Z,95900.97
2022-12-31T11:15:54.852Z,95782.69
2022-12-31T11:17:22.499Z,95895.31
2022-12-31T11:18:53.202Z,95905.69
2022-12-31T11:20:10.900Z,95894.53
2022-12-31T11:21:30.592Z,95890.88
2022-12-31T11:22:52.210Z,95887.25
2022-12-31T11:24:27.676Z,95797.06
2022-12-31T11:25:34.214Z,95885.63
2022-12-31T11:26:45.565Z,95884.41
2022-12-31T11:27:53.846Z,95753.53
2022-12-31T11:29:13.695Z,95900.66
2022-12-31T11:30:22.522Z,95879.16
2022-12-31T11:31:58.128Z,95883.19
2022-12-31T11:33:21.239Z,95870.59
2022-12-31T11:34:33.029Z,95884.41
2022-12-31T11:35:51.290Z,95890.31
2022-12-31T11:37:05.858Z,95760.16
2022-12-31T11:38:21.238Z,95907.78
2022-12-31T11:39:31.398Z,95881.56
2022-12-31T11:40:57.123Z,95878.75
2022-12-31T11:42:04.925Z,95821.84
2022-12-31T11:43:26.392Z,95881.19
2022-12-31T11:44:49.879Z,95875.91
2022-12-31T11:46:28.572Z,95857.59
2022-12-31T11:48:20.225Z,95865.16
2022-12-31T11:49:00.858Z,95872.44
2022-12-31T11:50:15.740Z,95870.59
2022-12-31T11:51:50.799Z,95869.00
2022-12-31T11:53:12.354Z,95866.53
2022-12-31T11:54:30.276Z,95837.28
2022-12-31T11:55:53.284Z,95888.69
2022-12-31T11:57:20.479Z,95836.50
2022-12-31T11:58:28.441Z,95820.22
2022-12-31T11:59:25.471Z,95793.44
2022-12-31T12:00:26.011Z,95733.75
2022-12-31T12:01:41.424Z,95812.88
2022-12-31T12:02:45.817Z,95809.28
2022-12-31T12:03:44.180Z,95861.25
2022-12-31T12:04:41.717Z,95882.97
2022-12-31T12:05:40.485Z,95914.50
2022-12-31T12:06:37.269Z,95885.03
2022-12-31T12:07:34.017Z,95892.09
2022-12-31T12:08:36.268Z,95904.72
2022-12-31T12:09:35.659Z,95822.66
2022-12-31T12:10:58.762Z,95882.34
2022-12-31T12:12:05.052Z,95892.47
2022-12-31T12:13:21.408Z,95887.28
2022-12-31T12:14:28.120Z,95889.72
2022-12-31T12:15:29.853Z,95801.97
2022-12-31T12:16:28.805Z,95808.22
2022-12-31T12:17:32.550Z,95808.00
2022-12-31T12:18:42.379Z,95797.28
2022-12-31T12:19:46.488Z,95808.44
2022-12-31T12:20:46.819Z,95813.28
2022-12-31T12:21:48.565Z,95886.56
2022-12-31T12:22:56.365Z,95899.63
2022-12-31T12:23:56.532Z,95880.47
2022-12-31T12:25:03.173Z,95756.47
2022-12-31T12:26:00.340Z,95758.06
2022-12-31T12:26:57.619Z,95868.13
2022-12-31T12:27:54.537Z,95775.91
2022-12-31T12:28:51.435Z,95908.06
2022-12-31T12:29:48.508Z,95885.50
2022-12-31T12:30:52.901Z,95692.88
2022-12-31T12:32:15.283Z,95791.88
2022-12-31T12:33:18.884Z,95868.44
2022-12-31T12:34:24.697Z,95893.78
2022-12-31T12:35:31.630Z,95935.09
2022-12-31T12:36:28.462Z,95548.38
2022-12-31T12:37:25.207Z,95883.91
2022-12-31T12:38:23.755Z,95885.81
2022-12-31T12:39:27.061Z,95886.50
2022-12-31T12:40:28.370Z,95877.44
2022-12-31T12:41:28.413Z,95852.84
2022-12-31T12:42:25.342Z,95906.03
2022-12-31T12:43:32.039Z,95892.00
2022-12-31T12:44:29.147Z,95791.97
2022-12-31T12:45:51.636Z,95906.91
2022-12-31T12:46:52.955Z,95883.25
2022-12-31T12:48:09.201Z,95831.78
2022-12-31T12:49:06.238Z,95804.19
2022-12-31T12:50:04.479Z,95882.69